RJSM(METAR)
05/26 20:00
METAR RJSM 261100Z 00000KT 9999 FEW020 12/07 Q1011 RMK 1CU020 A2988=
戻る
トップページへ戻る
IMOC Co,.Ltd.